地図

経路データ

SID SEASON NUMBER BASIN SUBBASIN NAME ISO_TIME NATURE LAT LON WMO_WIND WMO_PRES WMO_AGENCY TRACK_TYPE DIST2LAND LANDFALL IFLAG USA_AGENCY USA_ATCF_ID USA_LAT USA_LON USA_RECORD USA_STATUS USA_WIND USA_PRES USA_SSHS USA_R34_NE USA_R34_SE USA_R34_SW USA_R34_NW USA_R50_NE USA_R50_SE USA_R50_SW USA_R50_NW USA_R64_NE USA_R64_SE USA_R64_SW USA_R64_NW USA_POCI USA_ROCI USA_RMW USA_EYE TOKYO_LAT TOKYO_LON TOKYO_GRADE TOKYO_WIND TOKYO_PRES TOKYO_R50_DIR TOKYO_R50_LONG TOKYO_R50_SHORT TOKYO_R30_DIR TOKYO_R30_LONG TOKYO_R30_SHORT TOKYO_LAND CMA_LAT CMA_LON CMA_CAT CMA_WIND CMA_PRES HKO_LAT HKO_LON HKO_CAT HKO_WIND HKO_PRES NEWDELHI_LAT NEWDELHI_LON NEWDELHI_GRADE NEWDELHI_WIND NEWDELHI_PRES NEWDELHI_CI NEWDELHI_DP NEWDELHI_POCI REUNION_LAT REUNION_LON REUNION_TYPE REUNION_WIND REUNION_PRES REUNION_TNUM REUNION_CI REUNION_RMW REUNION_R34_NE REUNION_R34_SE REUNION_R34_SW REUNION_R34_NW REUNION_R50_NE REUNION_R50_SE REUNION_R50_SW REUNION_R50_NW REUNION_R64_NE REUNION_R64_SE REUNION_R64_SW REUNION_R64_NW BOM_LAT BOM_LON BOM_TYPE BOM_WIND BOM_PRES BOM_TNUM BOM_CI BOM_RMW BOM_R34_NE BOM_R34_SE BOM_R34_SW BOM_R34_NW BOM_R50_NE BOM_R50_SE BOM_R50_SW BOM_R50_NW BOM_R64_NE BOM_R64_SE BOM_R64_SW BOM_R64_NW BOM_ROCI BOM_POCI BOM_EYE BOM_POS_METHOD BOM_PRES_METHOD NADI_LAT NADI_LON NADI_CAT NADI_WIND NADI_PRES WELLINGTON_LAT WELLINGTON_LON WELLINGTON_WIND WELLINGTON_PRES DS824_LAT DS824_LON DS824_STAGE DS824_WIND DS824_PRES TD9636_LAT TD9636_LON TD9636_STAGE TD9636_WIND TD9636_PRES TD9635_LAT TD9635_LON TD9635_WIND TD9635_PRES TD9635_ROCI NEUMANN_LAT NEUMANN_LON NEUMANN_CLASS NEUMANN_WIND NEUMANN_PRES MLC_LAT MLC_LON MLC_CLASS MLC_WIND MLC_PRES USA_GUST BOM_GUST BOM_GUST_PER REUNION_GUST REUNION_GUST_PER USA_SEAHGT USA_SEARAD_NE USA_SEARAD_SE USA_SEARAD_SW USA_SEARAD_NW STORM_SPEED STORM_DIR
1981335S16139 1982 110 SP EA AMELIA 1981-11-30 23:00:00 NR -16.0000 139.000 25 1004 bom main 99 99 ______O_______ -1 -16.0000 139.000 20 25 1004 1.50000 11 321
1981335S16139 1982 110 SP EA AMELIA 1981-12-01 00:00:00 TS -15.8562 138.876 main 105 105 ______P_____O_ -1 -15.7843 138.813 20 25 1003 -16.0000 139.000 TC 20 1004 13 323
1981335S16139 1982 110 SP EA AMELIA 1981-12-01 02:00:00 TS -15.4933 138.603 25 1003 bom main 124 123 ______O_____P_ -1 -15.4000 138.500 20 25 1003 1.50000 -15.6331 138.757 TC 21 1003 13 325
1981335S16139 1982 110 SP EA AMELIA 1981-12-01 03:00:00 TS -15.3394 138.496 main 132 125 ______P_____P_ -1 -15.2508 138.395 20 25 1002 -15.4575 138.630 TC 22 1003 11 324
1981335S16139 1982 110 SP EA AMELIA 1981-12-01 05:00:00 TS -15.0689 138.277 25 1002 bom main 138 138 ______O_____P_ -1 -15.0000 138.200 20 25 1002 1.50000 -15.1378 138.354 TC 24 1002 11 319
1981335S16139 1982 110 SP EA AMELIA 1981-12-01 06:00:00 TS -14.9252 138.127 main 136 97 ______P_____O_ -1 -14.8504 138.055 20 25 1001 -15.0000 138.200 TC 25 1002 12 308
1981335S16139 1982 110 SP EA AMELIA 1981-12-01 08:00:00 TS -14.6888 137.779 25 1000 bom main 97 72 ______O_____P_ -1 -14.6000 137.700 20 25 1000 1.50000 -14.7776 137.857 TC 25 1002 12 301
1981335S16139 1982 110 SP EA AMELIA 1981-12-01 09:00:00 TS -14.6158 137.590 main 72 31 ______P_____P_ -1 -14.5415 137.507 20 25 1000 -14.6900 137.673 TC 25 1002 12 286
1981335S16139 1982 110 SP EA AMELIA 1981-12-01 11:00:00 TS -14.5265 137.196 25 1002 bom main 31 22 ______O_____P_ -1 -14.5000 137.100 20 25 1002 1.50000 -14.5531 137.291 TC 25 1002 12 282
1981335S16139 1982 110 SP EA AMELIA 1981-12-01 12:00:00 TS -14.4892 136.992 main 22 11 ______P_____O_ -1 -14.4783 136.883 20 25 1002 -14.5000 137.100 TC 25 1002 12 279
1981335S16139 1982 110 SP EA AMELIA 1981-12-01 15:00:00 TS -14.3964 136.372 main 22 22 ______P_____P_ -1 -14.4075 136.269 20 25 1002 -14.3852 136.475 TC 25 1002 11 281
1981335S16139 1982 110 SP EA AMELIA 1981-12-01 17:00:00 TS -14.3156 136.063 25 1002 bom main 24 15 ______O_____P_ -1 -14.3000 136.000 20 25 1002 1.50000 -14.3313 136.126 TC 25 1002 8 290
1981335S16139 1982 110 SP EA AMELIA 1981-12-01 18:00:00 TS -14.2551 135.972 main 15 0 ______P_____O_ -1 -14.2102 135.944 20 25 1002 -14.3000 136.000 TC 25 1002 5 322
1981335S16139 1982 110 SP EA AMELIA 1981-12-01 20:00:00 TS -14.1038 135.894 25 1002 bom main 0 0 ______O_____P_ -1 -14.0000 135.900 20 25 1002 1.50000 -14.2077 135.888 TC 26 1002 5 339
1981335S16139 1982 110 SP EA AMELIA 1981-12-01 21:00:00 TS -14.0341 135.876 main 0 0 ______P_____P_ -1 -13.9109 135.878 20 25 1002 -14.1573 135.875 TC 27 1002 5 351
1981335S16139 1982 110 SP EA AMELIA 1981-12-01 23:00:00 TS -13.8763 135.845 25 1002 bom main 0 0 ______O_____P_ -1 -13.7000 135.800 20 25 1002 1.50000 -14.0525 135.890 TC 29 1002 6 345
1981335S16139 1982 110 SP EA AMELIA 1981-12-02 00:00:00 TS -13.7691 135.805 main 0 0 ______P_____O_ -1 -13.5383 135.710 20 25 1002 -14.0000 135.900 TC 30 1002 7 335
1981335S16139 1982 110 SP EA AMELIA 1981-12-02 02:00:00 TS -13.5636 135.694 25 1002 bom main 0 0 ______O_____P_ -1 -13.2000 135.500 20 25 1002 1.50000 -13.9271 135.889 TC 30 1002 6 332
1981335S16139 1982 110 SP EA AMELIA 1981-12-02 03:00:00 TS -13.4885 135.647 main 0 0 ______P_____P_ -1 -13.0896 135.415 20 25 1001 -13.8875 135.880 TC 30 1002 5 332
1981335S16139 1982 110 SP EA AMELIA 1981-12-02 05:00:00 TS -13.3393 135.570 25 1000 bom main 0 0 ______O_____P_ -1 -12.9000 135.300 20 25 1000 1.50000 -13.7785 135.840 TC 30 1002 5 341
1981335S16139 1982 110 SP EA AMELIA 1981-12-02 06:00:00 TS -13.2400 135.556 main 0 0 ______P_____O_ -1 -12.7800 135.311 20 25 1000 -13.7000 135.800 TC 30 1002 7 346
1981335S16139 1982 110 SP EA AMELIA 1981-12-02 08:00:00 TS -12.9892 135.482 25 1000 bom main 0 0 ______O_____P_ -1 -12.5000 135.300 20 25 1000 1.50000 -13.4783 135.665 TC 30 1001 9 337
1981335S16139 1982 110 SP EA AMELIA 1981-12-02 09:00:00 TS -12.8381 135.379 main 0 0 ______P_____P_ -1 -12.3311 135.179 20 25 1000 -13.3450 135.580 TC 30 1001 12 321
1981335S16139 1982 110 SP EA AMELIA 1981-12-02 11:00:00 TS -12.5261 135.097 25 1000 bom main 0 0 ______O_____P_ -1 -12.0000 134.800 20 25 1000 1.50000 -13.0522 135.394 TC 30 1000 12 317
1981335S16139 1982 110 SI WA AMELIA 1981-12-02 12:00:00 TS -12.3913 134.946 main 0 0 ______P_____O_ -1 -11.8825 134.592 20 25 1000 -12.9000 135.300 TC 30 1000 11 310
1981335S16139 1982 110 SI WA AMELIA 1981-12-02 15:00:00 TS -12.0470 134.517 main 11 11 ______P_____P_ -1 -11.6743 133.932 20 25 1000 -12.4198 135.103 TC 30 1000 10 308
1981335S16139 1982 110 SI WA AMELIA 1981-12-02 17:00:00 TS -11.8620 134.262 25 1000 bom main 15 15 ______O_____P_ -1 -11.6000 133.600 20 25 1000 1.50000 -12.1239 134.923 TC 30 1000 9 307
1981335S16139 1982 110 SI WA AMELIA 1981-12-02 18:00:00 TS -11.7868 134.169 main 22 15 ______P_____O_ -1 -11.5736 133.537 20 25 1000 -12.0000 134.800 TC 30 1000 8 300
1981335S16139 1982 110 SI WA AMELIA 1981-12-02 20:00:00 TS -11.6556 133.900 25 1000 bom main 15 15 ______O_____P_ -1 -11.5000 133.400 20 25 1000 1.50000 -11.8113 134.401 TC 30 1000 10 296
1981335S16139 1982 110 SI WA AMELIA 1981-12-02 21:00:00 TS -11.5673 133.699 main 22 22 ______P_____P_ -1 -11.3941 133.221 20 25 999 -11.7405 134.177 TC 30 1000 13 291
1981335S16139 1982 110 SI WA AMELIA 1981-12-02 23:00:00 TS -11.4183 133.281 25 999 bom main 31 15 ______O_____P_ -1 -11.2000 132.800 20 25 999 1.50000 -11.6366 133.761 TC 30 1000 12 287
1981335S16139 1982 110 SI WA AMELIA 1981-12-03 00:00:00 TS -11.3981 133.120 main 15 0 ______P_____O_ -1 -11.1963 132.640 20 25 999 -11.6000 133.600 TC 30 1000 7 269
1981335S16139 1982 110 SI WA AMELIA 1981-12-03 02:00:00 TS -11.4268 132.938 25 1000 bom main 0 0 ______O_____P_ -1 -11.3000 132.400 20 25 1000 1.50000 -11.5491 133.417 TC 30 1000 5 258
1981335S16139 1982 110 SI WA AMELIA 1981-12-03 03:00:00 TS -11.4478 132.886 main 0 0 ______P_____P_ -1 -11.3533 132.318 20 25 1000 -11.5322 133.383 TC 30 1000 4 248
1981335S16139 1982 110 SI WA AMELIA 1981-12-03 05:00:00 TS -11.5086 132.727 25 1000 bom main 0 0 ______O_____P_ -1 -11.5000 132.200 20 25 1000 1.50000 -11.5090 133.383 TC 30 1000 6 248
1981335S16139 1982 110 SI WA AMELIA 1981-12-03 06:00:00 TS -11.5649 132.584 main 0 0 ______P_____O_ -1 -11.5974 132.177 20 25 1000 -11.5000 133.400 TC 30 1000 10 246
1981335S16139 1982 110 SI WA AMELIA 1981-12-03 08:00:00 TS -11.7188 132.244 25 1000 bom main 22 22 ______O_______ -1 -11.8000 132.000 20 25 1000 1.50000 TC 18 250
1981335S16139 1982 110 SI WA AMELIA 1981-12-03 09:00:00 NR -11.8842 131.713 main 40 11 ______P_______ -1 -11.8842 131.713 20 25 1000 TC 25 257
1981335S16139 1982 110 SI WA AMELIA 1981-12-03 11:00:00 NR -12.0000 131.000 25 1000 bom main 11 11 ______O_______ -1 -12.0000 131.000 20 25 1000 1.50000 TC 18 260
1981335S16139 1982 110 SI WA AMELIA 1981-12-03 12:00:00 NR -12.0350 130.794 main 22 22 ______P_______ -1 -12.0350 130.794 20 25 1000 8 268
1981335S16139 1982 110 SI WA AMELIA 1981-12-03 15:00:00 NR -12.0161 130.450 main 22 11 ______P_______ -1 -12.0161 130.450 20 25 1000 7 283
1981335S16139 1982 110 SI WA AMELIA 1981-12-03 17:00:00 NR -11.9000 130.200 25 1000 bom main 11 0 ______O_______ -1 -11.9000 130.200 20 25 1000 2.00000 10 294
1981335S16139 1982 110 SI WA AMELIA 1981-12-03 18:00:00 NR -11.8129 129.988 main 10 10 ______P_______ -1 -11.8129 129.988 20 25 999 15 294
1981335S16139 1982 110 SI WA AMELIA 1981-12-03 20:00:00 NR -11.6000 129.500 25 999 bom main 66 66 ______O_______ -1 -11.6000 129.500 20 25 999 2.50000 17 293
1981335S16139 1982 110 SI WA AMELIA 1981-12-03 21:00:00 NR -11.4838 129.214 main 98 98 ______P_______ -1 -11.4838 129.214 20 26 998 17 291
1981335S16139 1982 110 SI WA AMELIA 1981-12-03 23:00:00 NR -11.3000 128.700 30 998 bom main 154 154 ______O_______ -1 -11.3000 128.700 20 30 998 2.50000 1006 14 288
1981335S16139 1982 110 SI WA AMELIA 1981-12-04 00:00:00 NR -11.2762 128.555 main 165 165 ______P_______ -1 -11.2762 128.555 20 30 998 6 270
1981335S16139 1982 110 SI WA AMELIA 1981-12-04 02:00:00 NR -11.3000 128.400 30 998 bom main 186 186 ______O_______ -1 -11.3000 128.400 20 30 998 2.50000 4 265
1981335S16139 1982 110 SI WA AMELIA 1981-12-04 03:00:00 NR -11.2945 128.331 main 197 197 ______P_______ -1 -11.2945 128.331 20 30 997 4 270
1981335S16139 1982 110 SI WA AMELIA 1981-12-04 05:00:00 NR -11.3000 128.200 30 996 bom main 208 208 ______O_______ -1 -11.3000 128.200 20 30 996 2.50000 4 262
1981335S16139 1982 110 SI WA AMELIA 1981-12-04 06:00:00 NR -11.3254 128.113 main 219 219 ______P_______ -1 -11.3254 128.113 20 30 996 6 251
1981335S16139 1982 110 SI WA AMELIA 1981-12-04 08:00:00 NR -11.4000 127.900 30 996 bom main 240 240 ______O_______ -1 -11.4000 127.900 20 30 996 2.50000 7 253
1981335S16139 1982 110 SI WA AMELIA 1981-12-04 09:00:00 NR -11.4298 127.771 main 251 251 ______P_______ -1 -11.4298 127.771 20 30 996 8 256
1981335S16139 1982 110 SI WA AMELIA 1981-12-04 11:00:00 NR -11.5000 127.500 30 996 bom main 261 259 ______O_______ -1 -11.5000 127.500 20 30 996 2.50000 8 253
1981335S16139 1982 110 SI WA AMELIA 1981-12-04 12:00:00 NR -11.5458 127.385 main 259 235 ______P_______ -1 -11.5458 127.385 20 30 996 7 240
1981335S16139 1982 110 SI WA AMELIA 1981-12-04 15:00:00 NR -11.7333 127.087 main 235 212 ______P_______ -1 -11.7333 127.087 20 30 996 7 233
1981335S16139 1982 110 SI WA AMELIA 1981-12-04 17:00:00 NR -11.9000 126.900 30 996 bom main 212 201 ______O_______ -1 -11.9000 126.900 20 30 996 2.50000 8 226
1981335S16139 1982 110 SI WA AMELIA 1981-12-04 18:00:00 NR -12.0071 126.800 main 201 182 ______P_______ -1 -12.0071 126.800 20 31 996 8 224
1981335S16139 1982 110 SI WA AMELIA 1981-12-04 20:00:00 NR -12.2000 126.600 35 996 bom main 182 182 ______O_______ -1 -12.2000 126.600 30 35 996 3.00000 7 231
1981335S16139 1982 110 SI WA AMELIA 1981-12-04 21:00:00 NR -12.2437 126.505 main 184 173 ______P_______ -1 -12.2437 126.505 30 35 996 6 251
1981335S16139 1982 110 SI WA AMELIA 1981-12-04 23:00:00 NR -12.3000 126.300 35 997 bom main 180 180 ______O_______ -1 -12.3000 126.300 30 35 997 3.00000 1006 14 273
1981335S16139 1982 110 SI WA AMELIA 1981-12-05 00:00:00 NR -12.2095 125.779 main 204 169 O_____P___O___ jtwc_sh SH041982 -11.9000 125.000 45 0 -12.3642 126.169 30 35 997 -11.9000 125.000 2 9 243
1981335S16139 1982 110 SI WA AMELIA 1981-12-05 02:00:00 NR -12.5000 125.900 35 998 bom main 169 169 P_____O___P___ SH041982 -11.9698 124.811 -1 -12.5000 125.900 30 35 998 3.00000 -11.9616 124.795 2 6 172
1981335S16139 1982 110 SI WA AMELIA 1981-12-05 03:00:00 NR -12.5303 125.808 main 171 162 P_____P___P___ SH041982 -12.0060 124.716 -1 -12.5303 125.808 30 35 998 -11.9939 124.692 2 6 251
1981335S16139 1982 110 SI WA AMELIA 1981-12-05 05:00:00 NR -12.6000 125.600 35 998 bom main 165 159 P_____O___P___ SH041982 -12.0840 124.524 -1 -12.6000 125.600 30 35 998 3.00000 -12.0643 124.485 2 8 248
1981335S16139 1982 110 SI WA AMELIA 1981-12-05 06:00:00 NR -12.6842 125.418 main 164 159 P_____P___P___ SH041982 -12.1268 124.425 -1 -12.6842 125.418 30 33 998 -12.1036 124.380 2 13 243
1981335S16139 1982 110 SI WA AMELIA 1981-12-05 08:00:00 NR -12.9000 125.000 30 998 bom main 169 164 P_____O___P___ SH041982 -12.2229 124.224 -1 -12.9000 125.000 20 30 998 2.50000 -12.1936 124.166 2 13 241
1981335S16139 1982 110 SI WA AMELIA 1981-12-05 09:00:00 NR -13.0017 124.825 main 169 163 P_____P___P___ SH041982 -12.2773 124.120 -1 -13.0017 124.825 20 30 998 -12.2454 124.057 2 11 238
1981335S16139 1982 110 SI WA AMELIA 1981-12-05 11:00:00 NR -13.2000 124.500 30 1000 bom main 171 169 P_____O___P___ SH041982 -12.4016 123.904 -1 -13.2000 124.500 20 30 1000 2.50000 -12.3656 123.833 2 11 239
1981335S16139 1982 110 SI WA AMELIA 1981-12-05 12:00:00 NR -13.2974 124.325 main 175 172 P_____P___P___ SH041982 -12.4726 123.791 -1 -13.2974 124.325 20 30 1000 -12.4353 123.718 2 12 242
1981335S16139 1982 110 SI WA AMELIA 1981-12-05 15:00:00 NR -13.5630 123.804 main 188 188 P_____P___P___ SH041982 -12.7276 123.433 -1 -13.5630 123.804 20 30 1001 -12.6895 123.359 2 11 243
1981335S16139 1982 110 SI WA AMELIA 1981-12-05 17:00:00 NR -13.7000 123.500 30 1002 bom main 209 209 P_____O___P___ SH041982 -12.9381 123.174 -1 -13.7000 123.500 20 30 1002 2.50000 -12.9028 123.105 2 8 245
1981335S16139 1982 110 SI WA AMELIA 1981-12-05 18:00:00 NR -13.7423 123.414 main 218 218 P_____P___P___ SH041982 -13.0572 123.037 -1 -13.7423 123.414 20 30 1002 -13.0243 122.974 2 9 271
1981335S16139 1982 110 SI WA AMELIA 1981-12-05 21:00:00 NR -13.6864 122.851 main 264 264 P_____P___P___ SH041982 -13.4764 122.596 -1 -13.8255 123.189 20 30 1002 -13.4557 122.556 2 10 263
1981335S16139 1982 110 SI WA AMELIA 1981-12-05 23:00:00 NR -13.8485 122.527 30 1003 bom main 287 279 P_____O___P___ SH041982 -13.8130 122.272 -1 -13.9000 122.900 20 30 1003 2.50000 -13.8050 122.257 2 12 240
1981335S16139 1982 110 SI WA AMELIA 1981-12-06 00:00:00 NR -13.9871 122.319 main 287 264 O_____P___O___ jtwc_sh SH041982 -14.0000 122.100 -1 -13.9678 122.647 20 30 1003 -14.0000 122.100 2 16 231
1981335S16139 1982 110 SI WA AMELIA 1981-12-06 02:00:00 NR -14.3386 121.912 30 1003 bom main 268 253 P_____O___P___ SH041982 -14.4099 121.738 -1 -14.1000 122.100 20 30 1003 2.50000 -14.4287 121.773 2 16 226
1981335S16139 1982 110 SI WA AMELIA 1981-12-06 03:00:00 NR -14.5508 121.714 main 248 232 P_____P___P___ SH041982 -14.6277 121.552 -1 -14.1445 121.873 20 28 1003 -14.6571 121.603 2 18 220
1981335S16139 1982 110 SI WA AMELIA 1981-12-06 05:00:00 NR -15.0085 121.323 25 1003 bom main 239 231 P_____O___P___ SH041982 -15.0755 121.181 -1 -14.2000 121.500 20 25 1003 2.50000 -15.1272 121.254 2 20 217
1981335S16139 1982 110 SI WA AMELIA 1981-12-06 06:00:00 NR -15.3380 121.106 main 231 216 O_________P___ jtwc_sh SH041982 -15.3000 121.000 -1 20 -15.3630 121.077 2 19 216
1981335S16139 1982 110 SI WA AMELIA 1981-12-06 09:00:00 NR -16.0197 120.551 main 219 219 P_________P___ SH041982 -15.9948 120.492 -1 -16.0373 120.537 2 17 220
1981335S16139 1982 110 SI WA AMELIA 1981-12-06 12:00:00 NR -16.6000 120.000 main 246 246 O_________O___ jtwc_sh SH041982 -16.6000 120.000 -1 -16.6000 120.000 2 45 14 226
1981335S16139 1982 110 SI WA AMELIA 1981-12-06 15:00:00 NR -17.0105 119.470 main 284 284 P_________P___ SH041982 -17.0324 119.500 -1 -16.9927 119.481 2 42 12 236
1981335S16139 1982 110 SI WA AMELIA 1981-12-06 18:00:00 NR -17.2686 118.966 main 313 304 O_________P___ jtwc_sh SH041982 -17.3000 119.000 -1 -17.2420 118.978 2 40 10 247
1981335S16139 1982 110 SI WA AMELIA 1981-12-06 21:00:00 NR -17.4137 118.479 main 308 302 P_________P___ SH041982 -17.4353 118.500 -1 -17.3952 118.486 2 37 10 256
1981335S16139 1982 110 SI WA AMELIA 1981-12-07 00:00:00 NR -17.5000 118.000 main 313 O_________O___ jtwc_sh SH041982 -17.5000 118.000 -1 -17.5000 118.000 2 35 9 259

デジタル台風データ・検索

IBTrACS Databaseについて

本データベースは、米国NOAAが公開する1842年以降の世界の熱帯低気圧のベストトラックデータアーカイブInternational Best Track Archive for Climate Stewardship (IBTrACS)を、ウェブで閲覧しやすい形式に変換したものです。

最終更新日:2021-12-01